Flight Track Log - Related Links

Times and Time Zones

All times are in EDT time to prevent confusion due to time zone crossing. See the FFT346 flight status page for this flight to view local times or setup timezone preferences in your user account.

Time Position Orientation Groundspeed Altitude Reporting Facility
EDT Latitude Longitude Course Direction KTS MPH feet Rate Location/Type
Mon 12:35:42 PM 39.8667 -104.5500 108° East 201 231 7,400  Level Denver TRACON
Mon 12:36:42 PM 39.8333 -104.4667 117° Southeast 290 334 9,600 2,259 Climbing Denver TRACON
Mon 12:37:07 PM 39.8225 -104.4297 111° Southeast 287 330 10,600 2,069 Climbing Denver Center
Mon 12:38:09 PM 39.7831 -104.3178 115° Southeast 349 402 12,600 2,613 Climbing Denver Center
Mon 12:39:11 PM 39.7375 -104.1872 114° Southeast 372 428 16,000 2,710 Climbing Denver Center
Mon 12:40:13 PM 39.6942 -104.0603 114° Southeast 386 444 18,200 2,226 Climbing Denver Center
Mon 12:41:00 PM 39.5994 -103.8478 108° East  Level FlightAware Approximate
Mon 12:41:15 PM 39.6431 -103.9236 116° Southeast 416 479 20,600  Level Denver Center
Mon 12:42:17 PM 39.5853 -103.7733 116° Southeast 434 499 23,000 2,064 Climbing Denver Center
Mon 12:43:20 PM 39.5461 -103.6242 109° East 432 497 24,900 1,488 Climbing Denver Center
Mon 12:44:22 PM 39.5042 -103.4578 108° East 473 544 26,100 1,258 Climbing Denver Center
Mon 12:45:24 PM 39.4575 -103.2856 109° East 495 570 27,500 1,306 Climbing Denver Center
Mon 12:46:26 PM 39.4108 -103.1058 109° East 516 594 28,800 1,452 Climbing Denver Center
Mon 12:47:28 PM 39.3594 -102.9200 110° East 538 619 30,500 1,839 Climbing Denver Center
Mon 12:48:30 PM 39.3083 -102.7286 109° East 539 620 32,600 2,081 Climbing Denver Center
Mon 12:49:32 PM 39.2533 -102.5286 109° East 531 611 34,800 1,500 Climbing Denver Center
Mon 12:50:34 PM 39.2083 -102.3642 109° East 512 589 35,700 1,065 Climbing Denver Center
Mon 12:51:36 PM 39.1558 -102.1714 109° East 507 583 37,000 629 Climbing Denver Center
Mon 12:52:38 PM 39.1103 -102.0075 110° East 507 583 37,000  Level Denver Center
Mon 12:53:40 PM 39.0564 -101.8175 110° East 507 583 37,000  Level Denver Center
Mon 12:54:42 PM 39.0164 -101.6817 111° Southeast 509 586 37,000  Level Denver Center
Mon 12:55:44 PM 38.9525 -101.4628 111° Southeast 510 587 37,000  Level Denver Center
Mon 12:56:46 PM 38.9056 -101.2992 110° East 509 586 37,000  Level Denver Center
Mon 12:57:48 PM 38.8497 -101.1100 111° Southeast 507 583 37,000  Level Denver Center
Mon 12:58:50 PM 38.8022 -100.9467 110° East 510 587 37,000  Level Denver Center
Mon 12:59:52 PM 38.7464 -100.7592 111° Southeast 505 581 37,000  Level Denver Center
Mon 01:00:54 PM 38.6983 -100.5983 111° Southeast 505 581 37,000  Level Denver Center
Mon 01:01:56 PM 38.6503 -100.4381 111° Southeast 504 580 37,000  Level Denver Center
Mon 01:02:58 PM 38.5936 -100.2506 111° Southeast 504 580 37,000  Level Denver Center
Mon 01:04:00 PM 38.5444 -100.0881 111° Southeast 510 587 37,000 48 Level Denver Center
Mon 01:05:02 PM 38.4864 -99.9000 111° Southeast 508 585 37,100 55 Climbing Denver Center
Mon 01:05:50 PM 38.4536 -99.7925 111° Southeast 506 582 37,100 -55 Level Kansas City Center
Mon 01:06:51 PM 38.3953 -99.6053 112° Southeast 507 583 37,000 -48 Descending Kansas City Center
Mon 01:07:54 PM 38.3453 -99.4469 112° Southeast 505 581 37,000  Level Kansas City Center
Mon 01:08:55 PM 38.2939 -99.2817 112° Southeast 504 580 37,000  Level Kansas City Center
Mon 01:09:59 PM 38.2419 -99.1183 112° Southeast 500 575 37,000  Level Kansas City Center
Mon 01:11:00 PM 38.1803 -98.9236 112° Southeast 498 573 37,000  Level Kansas City Center
Mon 01:12:01 PM 38.1189 -98.7675 117° Southeast 494 568 37,000  Level Kansas City Center
Mon 01:13:05 PM 38.0542 -98.6144 118° Southeast 494 568 37,000  Level Kansas City Center
Mon 01:14:06 PM 37.9889 -98.4608 118° Southeast 496 571 37,000  Level Kansas City Center
Mon 01:15:06 PM 37.9239 -98.3083 118° Southeast 496 571 37,000  Level Kansas City Center
Mon 01:16:11 PM 37.8447 -98.1258 119° Southeast 499 574 37,000  Level Kansas City Center
Mon 01:17:12 PM 37.7853 -97.9900 119° Southeast 500 575 37,000  Level Kansas City Center
Mon 01:18:15 PM 37.7044 -97.8022 119° Southeast 503 579 37,000  Level Kansas City Center
Mon 01:19:16 PM 37.6358 -97.6478 119° Southeast 502 578 37,000  Level Kansas City Center
Mon 01:20:17 PM 37.5678 -97.4867 118° Southeast 503 579 37,000  Level Kansas City Center
Mon 01:21:20 PM 37.5000 -97.3331 119° Southeast 504 580 37,000  Level Kansas City Center
Mon 01:22:20 PM 37.4322 -97.1792 119° Southeast 504 580 37,000 -48 Level Kansas City Center
Mon 01:23:24 PM 37.3642 -97.0272 119° Southeast 502 578 36,900 -425 Descending Kansas City Center
Mon 01:24:27 PM 37.2956 -96.8744 119° Southeast 501 577 36,100 -774 Descending Kansas City Center
Mon 01:25:28 PM 37.2283 -96.7247 119° Southeast 495 570 35,300 -885 Descending Kansas City Center
Mon 01:26:29 PM 37.1475 -96.5483 120° Southeast 487 560 34,300 -810 Descending Kansas City Center
Mon 01:27:34 PM 37.0853 -96.4078 119° Southeast 474 545 33,600 -720 Descending Kansas City Center
Mon 01:28:34 PM 37.0214 -96.2661 119° Southeast 466 536 32,800 -793 Descending Kansas City Center
Mon 01:29:35 PM 36.9572 -96.1278 120° Southeast 460 529 32,000 -768 Descending Kansas City Center
Mon 01:30:39 PM 36.8928 -95.9872 120° Southeast 462 532 31,200 -768 Descending Kansas City Center
Mon 01:31:40 PM 36.8236 -95.8358 120° Southeast 491 565 30,400 -912 Descending Kansas City Center
Mon 01:32:44 PM 36.7386 -95.6519 120° Southeast 507 583 29,300 -774 Descending Kansas City Center
Mon 01:33:44 PM 36.6842 -95.4917 113° Southeast 498 573 28,800 -496 Descending Kansas City Center
Mon 01:34:45 PM 36.6575 -95.3222 101° East 493 567 28,300 -484 Descending Kansas City Center
Mon 01:35:48 PM 36.6497 -95.1514 93° East 488 562 27,800 -480 Descending Kansas City Center
Mon 01:36:50 PM 36.6400 -94.9853 94° East 480 552 27,300 -1,048 Descending Kansas City Center
Mon 01:37:54 PM 36.6303 -94.8239 94° East 470 541 25,600 -1,920 Descending Kansas City Center
Mon 01:38:55 PM 36.6222 -94.6664 94° East 459 528 23,300 -2,281 Descending Kansas City Center
Mon 01:39:55 PM 36.6139 -94.5136 94° East 446 513 21,000 -2,468 Descending Kansas City Center
Mon 01:40:59 PM 36.6025 -94.3369 95° East 429 494 18,200 -2,381 Descending Kansas City Center
Mon 01:42:01 PM 36.5939 -94.1944 94° East 417 480 16,000 -2,213 Descending Kansas City Center
Mon 01:43:01 PM 36.5864 -94.0558 94° East 406 467 13,700 -2,032 Descending Kansas City Center
Mon 01:44:05 PM 36.5861 -93.9222 90° East 392 451 11,800 -1,440 Descending Kansas City Center
Mon 01:45:06 PM 36.5933 -93.8086 85° East 339 390 10,700 -1,548 Descending Kansas City Center
Mon 01:46:09 PM 36.5958 -93.6956 88° East 304 350 8,600 -2,081 Descending Kansas City Center
Mon 01:47:10 PM 36.6006 -93.6067 86° East 289 333 6,400 -1,742 Descending Kansas City Center
Mon 01:48:13 PM 36.6056 -93.5128 86° East 281 323 5,000 -1,333 Descending Kansas City Center
Mon 01:50:00 PM 36.5333 -93.2463 90° East  Level FlightAware Approximate
Mon 01:57:00 PM 36.5167 -93.2000 141° Southeast  Level FlightAware Approximate
Mon 01:58:00 PM 36.5321 -93.2005 141° Southeast  Level Estimated
Mon 01:59:00 PM 36.5321 -93.2005 141° Southeast  Level Estimated
Mon 02:00:00 PM 36.5321 -93.2005 141° Southeast  Level Estimated

Login

Don't have an account? Register now (free) for customized features, flight alerts, and more!